createdAt,value
2018-04-08T00:00:39.106Z,10.20
2018-04-08T00:03:06.608Z,10.20
2018-04-08T00:05:34.111Z,10.00
2018-04-08T00:08:02.364Z,10.00
2018-04-08T00:10:29.868Z,10.00
2018-04-08T00:12:57.345Z,9.90
2018-04-08T00:15:24.855Z,10.00
2018-04-08T00:17:53.149Z,10.00
2018-04-08T00:20:21.398Z,10.00
2018-04-08T00:22:48.926Z,10.00
2018-04-08T00:25:16.410Z,9.90
2018-04-08T00:27:43.911Z,9.90
2018-04-08T00:30:11.398Z,9.90
2018-04-08T00:32:38.913Z,9.80
2018-04-08T00:35:07.158Z,9.80
2018-04-08T00:37:34.647Z,9.80
2018-04-08T00:40:02.138Z,9.80
2018-04-08T00:42:29.628Z,9.80
2018-04-08T00:44:57.141Z,9.80
2018-04-08T00:47:24.623Z,9.80
2018-04-08T00:49:52.111Z,9.70
2018-04-08T00:52:19.595Z,9.50
2018-04-08T00:54:47.866Z,9.40
2018-04-08T00:57:16.120Z,9.30
2018-04-08T00:59:43.626Z,9.30
2018-04-08T01:02:11.107Z,9.20
2018-04-08T01:04:38.578Z,9.30
2018-04-08T01:07:06.084Z,9.20
2018-04-08T01:09:33.560Z,9.20
2018-04-08T01:12:01.055Z,9.10
2018-04-08T01:14:28.540Z,9.00
2018-04-08T01:16:56.803Z,8.90
2018-04-08T01:19:25.092Z,8.90
2018-04-08T01:21:53.359Z,8.90
2018-04-08T01:24:21.619Z,8.90
2018-04-08T01:26:49.115Z,8.90
2018-04-08T01:29:16.614Z,9.00
2018-04-08T01:31:44.104Z,8.90
2018-04-08T01:34:11.615Z,9.00
2018-04-08T01:36:39.129Z,8.90
2018-04-08T01:39:07.390Z,8.80
2018-04-08T01:41:34.883Z,8.80
2018-04-08T01:44:02.402Z,8.80
2018-04-08T01:46:29.886Z,8.80
2018-04-08T01:48:58.163Z,8.90
2018-04-08T01:51:26.414Z,8.90
2018-04-08T01:53:53.893Z,8.90
2018-04-08T01:56:22.176Z,8.70
2018-04-08T01:58:50.426Z,8.70
2018-04-08T02:01:17.929Z,8.70
2018-04-08T02:03:45.444Z,8.60
2018-04-08T02:06:12.931Z,8.60
2018-04-08T02:08:40.419Z,8.60
2018-04-08T02:11:07.920Z,8.60
2018-04-08T02:13:35.403Z,8.50
2018-04-08T02:16:03.660Z,8.50
2018-04-08T02:18:31.940Z,8.40
2018-04-08T02:21:00.211Z,8.30
2018-04-08T02:23:28.497Z,8.20
2018-04-08T02:25:56.756Z,8.20
2018-04-08T02:28:24.252Z,8.20
2018-04-08T02:30:51.762Z,8.20
2018-04-08T02:33:19.283Z,8.30
2018-04-08T02:35:46.780Z,8.20
2018-04-08T02:38:14.284Z,8.30
2018-04-08T02:40:41.765Z,8.30
2018-04-08T02:43:09.298Z,8.20
2018-04-08T02:45:36.806Z,8.30
2018-04-08T02:48:04.336Z,8.20
2018-04-08T02:50:31.838Z,8.30
2018-04-08T02:52:59.348Z,8.20
2018-04-08T02:55:26.870Z,8.20
2018-04-08T02:57:55.118Z,8.00
2018-04-08T03:00:22.626Z,8.00
2018-04-08T03:02:50.120Z,7.90
2018-04-08T03:05:17.622Z,8.00
2018-04-08T03:07:45.128Z,7.90
2018-04-08T03:10:12.679Z,8.00
2018-04-08T03:12:40.196Z,8.40
2018-04-08T03:15:08.439Z,8.10
2018-04-08T03:17:35.926Z,8.10
2018-04-08T03:20:04.200Z,7.90
2018-04-08T03:22:31.723Z,7.80
2018-04-08T03:24:59.236Z,7.80
2018-04-08T03:27:26.753Z,7.80
2018-04-08T03:29:54.254Z,7.80
2018-04-08T03:32:21.754Z,7.80
2018-04-08T03:34:49.291Z,7.70
2018-04-08T03:37:16.809Z,7.70
2018-04-08T03:39:45.068Z,7.80
2018-04-08T03:42:12.568Z,7.80
2018-04-08T03:44:40.063Z,7.60
2018-04-08T03:47:07.560Z,7.60
2018-04-08T03:49:35.826Z,7.50
2018-04-08T03:52:04.080Z,7.50
2018-04-08T03:54:31.560Z,7.50
2018-04-08T03:56:59.100Z,7.60
2018-04-08T03:59:26.586Z,7.50
2018-04-08T04:01:54.876Z,7.40
2018-04-08T04:04:23.159Z,7.40
2018-04-08T04:06:51.391Z,7.40
2018-04-08T04:09:18.903Z,7.40
2018-04-08T04:11:46.429Z,7.30
2018-04-08T04:14:14.705Z,7.20
2018-04-08T04:16:42.962Z,7.20
2018-04-08T04:19:22.434Z,7.10
2018-04-08T04:22:02.464Z,7.10
2018-04-08T04:24:41.799Z,7.10
2018-04-08T04:27:09.316Z,7.10
2018-04-08T04:29:36.897Z,7.10
2018-04-08T04:32:04.435Z,7.10
2018-04-08T04:34:31.972Z,7.10
2018-04-08T04:36:59.566Z,7.00
2018-04-08T04:39:27.091Z,6.80
2018-04-08T04:41:54.622Z,7.00
2018-04-08T04:44:22.900Z,6.90
2018-04-08T04:46:51.197Z,7.00
2018-04-08T04:49:18.743Z,6.90
2018-04-08T04:51:47.034Z,7.00
2018-04-08T04:54:14.668Z,7.00
2018-04-08T04:56:42.264Z,7.00
2018-04-08T04:59:09.767Z,6.90
2018-04-08T05:01:37.331Z,6.90
2018-04-08T05:04:04.876Z,6.90
2018-04-08T05:06:32.425Z,6.80
2018-04-08T05:09:00.015Z,6.70
2018-04-08T05:11:27.526Z,6.80
2018-04-08T05:13:55.060Z,6.70
2018-04-08T05:16:22.571Z,6.80
2018-04-08T05:18:50.085Z,6.90
2018-04-08T05:21:17.620Z,6.80
2018-04-08T05:23:45.891Z,6.80
2018-04-08T05:26:13.425Z,6.80
2018-04-08T05:28:40.977Z,6.90
2018-04-08T05:31:08.535Z,6.90
2018-04-08T05:33:36.089Z,6.70
2018-04-08T05:36:03.605Z,6.80
2018-04-08T05:38:31.174Z,7.00
2018-04-08T05:40:58.766Z,7.00
2018-04-08T05:43:26.261Z,7.00
2018-04-08T05:45:53.794Z,7.10
2018-04-08T05:48:21.292Z,7.20
2018-04-08T05:50:49.606Z,7.50
2018-04-08T05:53:17.118Z,7.50
2018-04-08T05:55:45.420Z,7.70
2018-04-08T05:58:12.943Z,7.70
2018-04-08T06:00:40.509Z,7.80
2018-04-08T06:03:08.049Z,7.90
2018-04-08T06:05:35.563Z,8.00
2018-04-08T06:08:03.124Z,8.20
2018-04-08T06:10:30.639Z,8.40
2018-04-08T06:12:58.143Z,8.60
2018-04-08T06:15:25.662Z,8.70
2018-04-08T06:17:53.187Z,8.90
2018-04-08T06:20:20.742Z,9.00
2018-04-08T06:22:48.276Z,9.20
2018-04-08T06:25:15.784Z,9.30
2018-04-08T06:27:43.284Z,9.40
2018-04-08T06:30:10.832Z,9.60
2018-04-08T06:32:39.110Z,9.80
2018-04-08T06:35:07.365Z,9.90
2018-04-08T06:37:34.875Z,9.90
2018-04-08T06:40:02.414Z,10.20
2018-04-08T06:42:29.950Z,10.30
2018-04-08T06:44:58.239Z,10.60
2018-04-08T06:47:26.497Z,10.80
2018-04-08T06:49:54.009Z,10.80
2018-04-08T06:52:21.542Z,10.90
2018-04-08T06:54:49.058Z,11.10
2018-04-08T06:57:16.580Z,11.20
2018-04-08T06:59:44.090Z,11.40
2018-04-08T07:02:12.349Z,11.80
2018-04-08T07:04:39.856Z,11.80
2018-04-08T07:07:07.346Z,12.00
2018-04-08T07:09:34.863Z,12.30
2018-04-08T07:12:02.387Z,12.50
2018-04-08T07:14:29.871Z,12.70
2018-04-08T07:16:58.261Z,13.30
2018-04-08T07:19:25.739Z,13.20
2018-04-08T07:21:53.256Z,13.50
2018-04-08T07:24:21.513Z,14.20
2018-04-08T07:26:48.997Z,14.20
2018-04-08T07:29:17.270Z,15.10
2018-04-08T07:31:45.522Z,15.70
2018-04-08T07:34:13.025Z,15.70
2018-04-08T07:36:40.528Z,16.20
2018-04-08T07:39:08.025Z,16.80
2018-04-08T07:41:36.283Z,18.30
2018-04-08T07:44:03.772Z,18.30
2018-04-08T07:46:31.274Z,19.00
2018-04-08T07:48:58.772Z,19.70
2018-04-08T07:51:27.032Z,20.90
2018-04-08T07:53:54.548Z,20.80
2018-04-08T07:56:22.034Z,21.40
2018-04-08T07:58:49.539Z,21.70
2018-04-08T08:01:17.028Z,22.20
2018-04-08T08:03:44.538Z,22.70
2018-04-08T08:06:12.817Z,23.50
2018-04-08T08:08:41.062Z,23.80
2018-04-08T08:11:08.609Z,23.80
2018-04-08T08:13:36.066Z,24.20
2018-04-08T08:16:03.564Z,24.50
2018-04-08T08:18:31.840Z,25.10
2018-04-08T08:21:00.097Z,24.70
2018-04-08T08:23:27.604Z,24.70
2018-04-08T08:25:55.096Z,25.40
2018-04-08T08:28:22.574Z,25.60
2018-04-08T08:30:50.088Z,26.00
2018-04-08T08:33:17.574Z,26.50
2018-04-08T08:35:45.084Z,26.80
2018-04-08T08:38:12.603Z,27.00
2018-04-08T08:40:40.111Z,27.20
2018-04-08T08:43:07.599Z,27.40
2018-04-08T08:45:35.084Z,27.20
2018-04-08T08:48:02.580Z,27.40
2018-04-08T08:50:30.075Z,27.60
2018-04-08T08:52:57.572Z,27.60
2018-04-08T08:55:25.835Z,28.00
2018-04-08T08:57:54.113Z,27.90
2018-04-08T09:00:22.406Z,28.30
2018-04-08T09:02:50.730Z,28.40
2018-04-08T09:05:18.224Z,28.30
2018-04-08T09:07:46.500Z,29.00
2018-04-08T09:10:14.764Z,29.20
2018-04-08T09:12:42.265Z,29.10
2018-04-08T09:15:09.770Z,29.60
2018-04-08T09:17:37.259Z,29.70
2018-04-08T09:20:05.513Z,29.40
2018-04-08T09:22:34.506Z,29.40
2018-04-08T09:28:05.561Z,30.00
2018-04-08T09:30:33.058Z,29.90
2018-04-08T09:33:00.562Z,30.00
2018-04-08T09:35:28.058Z,29.80
2018-04-08T09:37:56.312Z,29.90
2018-04-08T09:40:23.813Z,29.90
2018-04-08T09:42:51.323Z,30.00
2018-04-08T09:45:18.816Z,29.70
2018-04-08T09:47:46.317Z,29.70
2018-04-08T09:50:13.818Z,29.70
2018-04-08T09:52:41.304Z,30.00
2018-04-08T09:55:08.800Z,30.20
2018-04-08T09:57:36.775Z,30.30
2018-04-08T10:00:04.258Z,30.30
2018-04-08T10:02:39.244Z,30.60
2018-04-08T10:05:06.728Z,30.60
2018-04-08T10:07:34.234Z,30.80
2018-04-08T10:10:01.742Z,30.10
2018-04-08T10:12:29.242Z,29.80
2018-04-08T10:14:57.508Z,30.60
2018-04-08T10:17:25.796Z,30.40
2018-04-08T10:19:54.038Z,30.70
2018-04-08T10:22:21.520Z,30.70
2018-04-08T10:24:49.813Z,30.50
2018-04-08T10:27:17.320Z,30.40
2018-04-08T10:29:44.849Z,30.20
2018-04-08T10:32:12.356Z,30.10
2018-04-08T10:34:39.861Z,30.10
2018-04-08T10:37:07.383Z,30.60
2018-04-08T10:39:35.639Z,31.20
2018-04-08T10:42:03.165Z,31.20
2018-04-08T10:44:30.731Z,31.40
2018-04-08T10:46:58.251Z,31.30
2018-04-08T10:49:26.528Z,31.50
2018-04-08T10:51:54.792Z,31.60
2018-04-08T10:54:23.072Z,31.80
2018-04-08T10:56:51.344Z,31.30
2018-04-08T10:59:19.594Z,31.60
2018-04-08T11:01:47.094Z,31.50
2018-04-08T11:04:14.574Z,31.80
2018-04-08T11:06:42.091Z,32.20
2018-04-08T11:09:10.381Z,32.10
2018-04-08T11:11:37.867Z,32.10
2018-04-08T11:14:05.365Z,32.30
2018-04-08T11:16:32.868Z,32.40
2018-04-08T11:19:00.392Z,32.70
2018-04-08T11:21:27.883Z,32.80
2018-04-08T11:23:55.366Z,32.80
2018-04-08T11:26:22.867Z,32.90
2018-04-08T11:28:50.375Z,32.40
2018-04-08T11:31:17.926Z,32.20
2018-04-08T11:33:45.408Z,32.00
2018-04-08T11:36:12.899Z,31.60
2018-04-08T11:38:40.405Z,31.60
2018-04-08T11:41:07.895Z,32.30
2018-04-08T11:43:35.400Z,32.60
2018-04-08T11:46:02.911Z,32.00
2018-04-08T11:48:30.390Z,31.10
2018-04-08T11:50:57.889Z,31.30
2018-04-08T11:53:25.402Z,31.10
2018-04-08T11:55:52.905Z,31.70
2018-04-08T11:58:20.413Z,32.10
2018-04-08T12:00:49.449Z,31.80
2018-04-08T12:03:16.930Z,31.80
2018-04-08T12:05:44.443Z,31.80
2018-04-08T12:08:12.716Z,32.60
2018-04-08T12:10:40.978Z,32.80
2018-04-08T12:13:08.580Z,32.80
2018-04-08T12:15:36.089Z,33.20
2018-04-08T12:18:03.755Z,33.50
2018-04-08T12:20:31.280Z,33.70
2018-04-08T12:22:58.779Z,33.80
2018-04-08T12:25:26.564Z,33.80
2018-04-08T12:27:54.084Z,33.50
2018-04-08T12:30:21.578Z,33.30
2018-04-08T12:32:49.959Z,33.90
2018-04-08T12:35:17.446Z,33.80
2018-04-08T12:37:44.951Z,33.80
2018-04-08T12:40:12.472Z,33.90
2018-04-08T12:42:39.960Z,33.90
2018-04-08T12:45:07.451Z,34.10
2018-04-08T12:47:35.732Z,33.80
2018-04-08T12:50:03.444Z,33.80
2018-04-08T12:52:30.944Z,34.00
2018-04-08T12:54:59.306Z,34.60
2018-04-08T12:57:27.569Z,34.20
2018-04-08T12:59:55.057Z,34.20
2018-04-08T13:02:23.416Z,34.10
2018-04-08T13:04:50.908Z,34.00
2018-04-08T13:07:18.404Z,34.40
2018-04-08T13:09:45.906Z,34.50
2018-04-08T13:12:14.157Z,33.60
2018-04-08T13:14:41.640Z,33.60
2018-04-08T13:17:09.913Z,33.80
2018-04-08T13:19:38.160Z,33.00
2018-04-08T13:22:05.871Z,33.00
2018-04-08T13:24:33.359Z,33.40
2018-04-08T13:27:00.854Z,33.90
2018-04-08T13:29:28.362Z,33.30
2018-04-08T13:31:55.895Z,33.80
2018-04-08T13:34:23.422Z,34.60
2018-04-08T13:36:50.920Z,35.00
2018-04-08T13:39:18.478Z,35.10
2018-04-08T13:41:45.974Z,35.30
2018-04-08T13:44:13.464Z,35.20
2018-04-08T13:46:40.975Z,35.00
2018-04-08T13:49:08.462Z,34.60
2018-04-08T13:51:36.025Z,35.00
2018-04-08T13:54:03.703Z,35.10
2018-04-08T13:56:31.964Z,35.30
2018-04-08T13:58:59.512Z,35.20
2018-04-08T14:01:27.087Z,35.20
2018-04-08T14:03:54.565Z,33.40
2018-04-08T14:06:22.926Z,34.10
2018-04-08T14:08:50.428Z,34.10
2018-04-08T14:11:17.948Z,34.70
2018-04-08T14:13:45.448Z,34.80
2018-04-08T14:16:12.949Z,34.40
2018-04-08T14:18:40.470Z,33.60
2018-04-08T14:21:07.988Z,34.30
2018-04-08T14:23:36.276Z,35.30
2018-04-08T14:26:04.576Z,35.10
2018-04-08T14:28:32.076Z,35.10
2018-04-08T14:30:59.778Z,35.30
2018-04-08T14:33:27.294Z,36.00
2018-04-08T14:35:54.819Z,36.60
2018-04-08T14:38:22.311Z,36.80
2018-04-08T14:40:50.600Z,36.50
2018-04-08T14:43:18.104Z,36.50
2018-04-08T14:45:45.786Z,35.80
2018-04-08T14:48:13.498Z,35.70
2018-04-08T14:50:41.946Z,35.60
2018-04-08T14:53:09.448Z,35.70
2018-04-08T14:55:37.911Z,35.50
2018-04-08T14:58:06.165Z,35.50
2018-04-08T15:00:33.871Z,35.50
2018-04-08T15:03:01.384Z,35.10
2018-04-08T15:05:28.880Z,34.90
2018-04-08T15:07:57.170Z,35.50
2018-04-08T15:10:24.671Z,35.40
2018-04-08T15:12:52.191Z,34.90
2018-04-08T15:15:19.681Z,35.00
2018-04-08T15:17:47.184Z,34.40
2018-04-08T15:20:15.459Z,34.30
2018-04-08T15:22:43.711Z,33.50
2018-04-08T15:25:11.227Z,33.60
2018-04-08T15:27:38.717Z,34.10
2018-04-08T15:30:06.216Z,33.40
2018-04-08T15:32:34.496Z,33.00
2018-04-08T15:35:02.768Z,33.50
2018-04-08T15:37:31.048Z,34.10
2018-04-08T15:39:58.557Z,34.00
2018-04-08T15:42:26.085Z,31.80
2018-04-08T15:44:54.336Z,30.80
2018-04-08T15:47:22.596Z,29.40
2018-04-08T15:49:50.122Z,29.40
2018-04-08T15:52:17.638Z,29.90
2018-04-08T15:54:45.132Z,30.60
2018-04-08T15:57:12.647Z,31.60
2018-04-08T15:59:40.923Z,32.10
2018-04-08T16:02:09.223Z,32.30
2018-04-08T16:04:36.719Z,32.30
2018-04-08T16:07:04.217Z,32.50
2018-04-08T16:09:31.968Z,32.00
2018-04-08T16:11:59.538Z,31.60
2018-04-08T16:14:27.818Z,32.60
2018-04-08T16:16:56.076Z,32.50
2018-04-08T16:19:24.341Z,32.70
2018-04-08T16:21:51.849Z,32.70
2018-04-08T16:24:19.347Z,32.70
2018-04-08T16:26:46.868Z,32.50
2018-04-08T16:29:14.365Z,32.40
2018-04-08T16:31:41.851Z,32.20
2018-04-08T16:34:10.118Z,29.90
2018-04-08T16:36:38.395Z,29.10
2018-04-08T16:39:05.888Z,29.10
2018-04-08T16:41:33.381Z,28.40
2018-04-08T16:44:00.904Z,27.70
2018-04-08T16:46:28.466Z,26.50
2018-04-08T16:49:04.995Z,26.40
2018-04-08T16:51:34.136Z,26.10
2018-04-08T16:54:01.758Z,25.50
2018-04-08T16:56:30.029Z,25.20
2018-04-08T16:58:57.633Z,25.10
2018-04-08T17:01:25.121Z,25.20
2018-04-08T17:03:52.696Z,25.20
2018-04-08T17:06:20.174Z,24.30
2018-04-08T17:08:48.426Z,24.00
2018-04-08T17:11:15.948Z,24.00
2018-04-08T17:13:43.438Z,23.90
2018-04-08T17:16:10.959Z,23.90
2018-04-08T17:18:38.462Z,23.90
2018-04-08T17:21:05.960Z,23.70
2018-04-08T17:23:33.611Z,23.80
2018-04-08T17:26:01.895Z,23.80
2018-04-08T17:28:29.419Z,23.80
2018-04-08T17:30:57.062Z,23.70
2018-04-08T17:33:24.706Z,23.80
2018-04-08T17:35:52.210Z,23.50
2018-04-08T17:38:20.513Z,23.30
2018-04-08T17:40:48.037Z,23.20
2018-04-08T17:43:15.684Z,23.40
2018-04-08T17:45:43.184Z,23.30
2018-04-08T17:48:12.056Z,23.20
2018-04-08T17:50:40.338Z,23.20
2018-04-08T17:53:08.661Z,23.10
2018-04-08T17:55:36.161Z,23.00
2018-04-08T17:58:03.642Z,22.80
2018-04-08T18:00:31.920Z,22.80
2018-04-08T18:03:00.188Z,22.60
2018-04-08T18:05:28.726Z,22.20
2018-04-08T18:07:56.247Z,22.10
2018-04-08T18:10:23.748Z,21.90
2018-04-08T18:12:51.256Z,22.00
2018-04-08T18:15:18.741Z,21.90
2018-04-08T18:17:46.291Z,22.00
2018-04-08T18:20:13.959Z,21.90
2018-04-08T18:22:41.453Z,21.70
2018-04-08T18:25:08.972Z,21.60
2018-04-08T18:27:36.467Z,21.60
2018-04-08T18:30:04.197Z,21.40
2018-04-08T18:32:31.687Z,21.20
2018-04-08T18:34:59.170Z,21.20
2018-04-08T18:37:27.482Z,21.20
2018-04-08T18:39:54.954Z,21.20
2018-04-08T18:42:22.469Z,21.10
2018-04-08T18:44:50.748Z,21.20
2018-04-08T18:47:19.003Z,21.10
2018-04-08T18:49:46.517Z,21.00
2018-04-08T18:52:14.015Z,20.90
2018-04-08T18:54:41.519Z,20.90
2018-04-08T18:57:09.034Z,20.80
2018-04-08T18:59:36.520Z,20.60
2018-04-08T19:02:04.783Z,20.40
2018-04-08T19:04:33.028Z,20.30
2018-04-08T19:07:00.648Z,20.20
2018-04-08T19:09:28.148Z,20.20
2018-04-08T19:11:55.670Z,20.10
2018-04-08T19:14:23.278Z,20.10
2018-04-08T19:16:50.772Z,19.80
2018-04-08T19:19:18.269Z,19.70
2018-04-08T19:21:45.940Z,19.80
2018-04-08T19:24:13.644Z,19.50
2018-04-08T19:26:41.913Z,19.30
2018-04-08T19:29:10.169Z,19.60
2018-04-08T19:31:37.680Z,19.50
2018-04-08T19:34:05.224Z,19.50
2018-04-08T19:36:32.735Z,19.30
2018-04-08T19:39:00.225Z,19.30
2018-04-08T19:41:28.473Z,19.70
2018-04-08T19:43:56.092Z,19.70
2018-04-08T19:46:23.567Z,19.60
2018-04-08T19:48:51.088Z,19.40
2018-04-08T19:51:18.596Z,19.20
2018-04-08T19:53:46.230Z,19.20
2018-04-08T19:56:13.737Z,19.20
2018-04-08T19:58:41.242Z,19.10
2018-04-08T20:01:08.774Z,19.20
2018-04-08T20:03:37.033Z,19.00
2018-04-08T20:06:05.305Z,19.10
2018-04-08T20:08:32.809Z,19.10
2018-04-08T20:11:00.286Z,18.80
2018-04-08T20:13:27.784Z,18.60
2018-04-08T20:15:56.037Z,18.90
2018-04-08T20:18:23.514Z,18.80
2018-04-08T20:20:51.221Z,18.80
2018-04-08T20:23:18.704Z,18.70
2018-04-08T20:25:46.985Z,18.70
2018-04-08T20:28:14.470Z,18.60
2018-04-08T20:30:41.964Z,18.60
2018-04-08T20:33:09.466Z,18.60
2018-04-08T20:35:37.332Z,18.60
2018-04-08T20:38:05.061Z,18.60
2018-04-08T20:40:32.621Z,18.60
2018-04-08T20:43:00.114Z,18.70
2018-04-08T20:45:27.628Z,18.70
2018-04-08T20:47:55.103Z,18.70
2018-04-08T20:50:22.606Z,18.70
2018-04-08T20:52:50.094Z,18.70
2018-04-08T20:55:17.589Z,18.90
2018-04-08T20:57:45.083Z,18.90
2018-04-08T21:00:13.168Z,18.80
2018-04-08T21:02:41.567Z,18.70
2018-04-08T21:05:09.076Z,18.70
2018-04-08T21:07:36.550Z,18.80
2018-04-08T21:10:04.838Z,18.60
2018-04-08T21:12:33.119Z,18.50
2018-04-08T21:15:01.407Z,18.70
2018-04-08T21:17:28.892Z,18.70
2018-04-08T21:19:56.403Z,18.50
2018-04-08T21:22:24.713Z,18.40
2018-04-08T21:24:52.193Z,18.40
2018-04-08T21:27:19.712Z,18.50
2018-04-08T21:29:47.974Z,18.50
2018-04-08T21:32:16.218Z,18.30
2018-04-08T21:34:43.711Z,18.40
2018-04-08T21:37:11.962Z,18.40
2018-04-08T21:39:39.481Z,18.40
2018-04-08T21:42:06.965Z,18.50
2018-04-08T21:44:34.453Z,18.30
2018-04-08T21:47:02.720Z,18.60
2018-04-08T21:49:30.202Z,18.50
2018-04-08T21:51:57.720Z,18.60
2018-04-08T21:54:25.241Z,18.70
2018-04-08T21:56:52.716Z,18.90
2018-04-08T21:59:20.220Z,18.80
2018-04-08T22:01:48.476Z,18.70
2018-04-08T22:04:16.001Z,18.70
2018-04-08T22:06:43.550Z,18.90
2018-04-08T22:09:11.037Z,18.60
2018-04-08T22:11:38.551Z,18.70
2018-04-08T22:14:06.047Z,18.60
2018-04-08T22:16:33.581Z,18.50
2018-04-08T22:19:01.087Z,18.40
2018-04-08T22:21:28.588Z,18.20
2018-04-08T22:23:56.082Z,17.90
2018-04-08T22:26:23.580Z,18.00
2018-04-08T22:28:51.852Z,17.90
2018-04-08T22:31:20.092Z,17.50
2018-04-08T22:33:47.585Z,17.50
2018-04-08T22:36:15.856Z,17.10
2018-04-08T22:38:44.100Z,17.10
2018-04-08T22:41:11.610Z,17.10
2018-04-08T22:43:39.111Z,17.10
2018-04-08T22:46:06.608Z,17.20
2018-04-08T22:48:34.875Z,17.60
2018-04-08T22:51:02.354Z,17.50
2018-04-08T22:53:30.635Z,17.90
2018-04-08T22:55:58.882Z,17.80
2018-04-08T22:58:26.391Z,17.80
2018-04-08T23:00:53.886Z,17.70
2018-04-08T23:03:21.410Z,17.70
2018-04-08T23:05:48.932Z,17.60
2018-04-08T23:08:17.182Z,17.40
2018-04-08T23:10:44.667Z,17.40
2018-04-08T23:13:12.953Z,17.70
2018-04-08T23:15:40.443Z,17.70
2018-04-08T23:18:07.961Z,17.70
2018-04-08T23:20:36.220Z,17.70
2018-04-08T23:23:03.726Z,17.70
2018-04-08T23:25:31.217Z,17.60
2018-04-08T23:27:58.712Z,17.60
2018-04-08T23:30:29.900Z,17.40
2018-04-08T23:32:57.390Z,17.40
2018-04-08T23:35:24.867Z,17.20
2018-04-08T23:37:53.160Z,17.00
2018-04-08T23:40:21.399Z,16.80
2018-04-08T23:42:48.908Z,16.70
2018-04-08T23:45:16.404Z,16.50
2018-04-08T23:47:43.914Z,16.30
2018-04-08T23:50:11.412Z,16.30
2018-04-08T23:52:38.898Z,16.20
2018-04-08T23:55:06.420Z,16.20
2018-04-08T23:57:33.921Z,16.10
